Terminal Aerodrome Forecast
Issued by NWS

Home | Current Version | Previous Version | Text Only | Print | Product List | Glossary On
Versions: 1 2 3 4 5 6 7 8 9 10 11 12 13 14 15 16 17 18 19
000
FTUS43 KGRB 090544
TAFAUW
TAF
KAUW 090544Z 0906/1006 31007KT P6SM SCT040
      TEMPO 0906/0910 SCT025 BKN040
     FM091500 29008G15KT P6SM SCT035
      TEMPO 0918/0922 BKN035
     FM100000 27007KT P6SM SCT040=

USA.gov is the U.S. government's official web portal to all federal, state and local government web resources and services.